sensor_id;sensor_type;location;lat;lon;timestamp;P1;durP1;ratioP1;P2;durP2;ratioP2
13704;SDS011;6924;52.122;9.952;2023-07-31T00:01:34;1.80;;;0.80;;
13704;SDS011;6924;52.122;9.952;2023-07-31T00:04:00;1.60;;;0.90;;
13704;SDS011;6924;52.122;9.952;2023-07-31T00:06:27;2.60;;;0.87;;
13704;SDS011;6924;52.122;9.952;2023-07-31T00:08:53;2.50;;;0.83;;
13704;SDS011;6924;52.122;9.952;2023-07-31T00:11:20;1.60;;;0.80;;
13704;SDS011;6924;52.122;9.952;2023-07-31T00:13:46;2.07;;;0.73;;
13704;SDS011;6924;52.122;9.952;2023-07-31T00:16:12;3.03;;;1.10;;
13704;SDS011;6924;52.122;9.952;2023-07-31T00:18:40;4.30;;;0.90;;
13704;SDS011;6924;52.122;9.952;2023-07-31T00:21:07;1.50;;;0.70;;
13704;SDS011;6924;52.122;9.952;2023-07-31T00:23:33;2.47;;;1.00;;
13704;SDS011;6924;52.122;9.952;2023-07-31T00:26:00;1.37;;;0.67;;
13704;SDS011;6924;52.122;9.952;2023-07-31T00:28:26;1.27;;;0.83;;
13704;SDS011;6924;52.122;9.952;2023-07-31T00:30:53;7.60;;;0.90;;
13704;SDS011;6924;52.122;9.952;2023-07-31T00:33:20;1.43;;;0.80;;
13704;SDS011;6924;52.122;9.952;2023-07-31T00:35:48;1.47;;;0.90;;
13704;SDS011;6924;52.122;9.952;2023-07-31T00:38:14;0.70;;;0.67;;
13704;SDS011;6924;52.122;9.952;2023-07-31T00:40:41;2.00;;;0.90;;
13704;SDS011;6924;52.122;9.952;2023-07-31T00:43:07;1.40;;;0.70;;
13704;SDS011;6924;52.122;9.952;2023-07-31T00:45:34;0.67;;;0.53;;
13704;SDS011;6924;52.122;9.952;2023-07-31T00:48:00;2.93;;;0.80;;
13704;SDS011;6924;52.122;9.952;2023-07-31T00:50:28;1.27;;;0.70;;
13704;SDS011;6924;52.122;9.952;2023-07-31T00:52:56;1.23;;;0.70;;
13704;SDS011;6924;52.122;9.952;2023-07-31T00:55:23;1.63;;;0.70;;
13704;SDS011;6924;52.122;9.952;2023-07-31T00:57:50;1.40;;;0.73;;
13704;SDS011;6924;52.122;9.952;2023-07-31T01:00:17;0.87;;;0.60;;
13704;SDS011;6924;52.122;9.952;2023-07-31T01:02:44;1.30;;;0.80;;
13704;SDS011;6924;52.122;9.952;2023-07-31T01:05:10;0.67;;;0.50;;
13704;SDS011;6924;52.122;9.952;2023-07-31T01:07:39;1.67;;;0.67;;
13704;SDS011;6924;52.122;9.952;2023-07-31T01:10:14;1.07;;;0.70;;
13704;SDS011;6924;52.122;9.952;2023-07-31T01:12:43;0.80;;;0.50;;
13704;SDS011;6924;52.122;9.952;2023-07-31T01:15:11;1.53;;;0.60;;
13704;SDS011;6924;52.122;9.952;2023-07-31T01:17:39;0.97;;;0.57;;
13704;SDS011;6924;52.122;9.952;2023-07-31T01:20:08;0.77;;;0.40;;
13704;SDS011;6924;52.122;9.952;2023-07-31T01:22:41;1.60;;;0.73;;
13704;SDS011;6924;52.122;9.952;2023-07-31T01:25:26;0.97;;;0.50;;
13704;SDS011;6924;52.122;9.952;2023-07-31T01:28:10;0.87;;;0.50;;
13704;SDS011;6924;52.122;9.952;2023-07-31T01:30:41;0.80;;;0.70;;
13704;SDS011;6924;52.122;9.952;2023-07-31T01:33:10;0.83;;;0.50;;
13704;SDS011;6924;52.122;9.952;2023-07-31T01:35:37;0.50;;;0.40;;
13704;SDS011;6924;52.122;9.952;2023-07-31T01:38:04;1.33;;;0.50;;
13704;SDS011;6924;52.122;9.952;2023-07-31T01:40:31;0.53;;;0.43;;
13704;SDS011;6924;52.122;9.952;2023-07-31T01:42:57;0.70;;;0.40;;
13704;SDS011;6924;52.122;9.952;2023-07-31T01:45:25;0.57;;;0.57;;
13704;SDS011;6924;52.122;9.952;2023-07-31T01:47:52;1.27;;;0.40;;
13704;SDS011;6924;52.122;9.952;2023-07-31T01:50:18;1.73;;;0.60;;
13704;SDS011;6924;52.122;9.952;2023-07-31T01:52:45;1.20;;;0.40;;
13704;SDS011;6924;52.122;9.952;2023-07-31T01:55:11;0.53;;;0.40;;
13704;SDS011;6924;52.122;9.952;2023-07-31T01:57:38;1.57;;;0.70;;
13704;SDS011;6924;52.122;9.952;2023-07-31T02:00:05;1.07;;;0.50;;
13704;SDS011;6924;52.122;9.952;2023-07-31T02:02:34;1.10;;;0.40;;
13704;SDS011;6924;52.122;9.952;2023-07-31T02:05:00;0.40;;;0.40;;
13704;SDS011;6924;52.122;9.952;2023-07-31T02:07:27;0.47;;;0.40;;
13704;SDS011;6924;52.122;9.952;2023-07-31T02:09:53;3.20;;;0.40;;
13704;SDS011;6924;52.122;9.952;2023-07-31T02:12:20;0.40;;;0.40;;
13704;SDS011;6924;52.122;9.952;2023-07-31T02:14:46;0.60;;;0.50;;
13704;SDS011;6924;52.122;9.952;2023-07-31T02:17:13;1.30;;;0.73;;
13704;SDS011;6924;52.122;9.952;2023-07-31T02:19:41;0.47;;;0.40;;
13704;SDS011;6924;52.122;9.952;2023-07-31T02:22:07;1.20;;;0.60;;
13704;SDS011;6924;52.122;9.952;2023-07-31T02:24:34;0.50;;;0.40;;
13704;SDS011;6924;52.122;9.952;2023-07-31T02:27:00;1.27;;;0.50;;
13704;SDS011;6924;52.122;9.952;2023-07-31T02:29:27;1.13;;;0.30;;
13704;SDS011;6924;52.122;9.952;2023-07-31T02:31:53;1.83;;;0.60;;
13704;SDS011;6924;52.122;9.952;2023-07-31T02:34:19;1.07;;;0.20;;
13704;SDS011;6924;52.122;9.952;2023-07-31T02:36:47;0.77;;;0.50;;
13704;SDS011;6924;52.122;9.952;2023-07-31T02:39:14;0.60;;;0.60;;
13704;SDS011;6924;52.122;9.952;2023-07-31T02:41:40;2.30;;;0.40;;
13704;SDS011;6924;52.122;9.952;2023-07-31T02:44:07;0.60;;;0.40;;
13704;SDS011;6924;52.122;9.952;2023-07-31T02:46:33;0.40;;;0.40;;
13704;SDS011;6924;52.122;9.952;2023-07-31T02:49:00;0.87;;;0.60;;
13704;SDS011;6924;52.122;9.952;2023-07-31T02:51:26;0.90;;;0.60;;
13704;SDS011;6924;52.122;9.952;2023-07-31T02:53:54;0.50;;;0.50;;
13704;SDS011;6924;52.122;9.952;2023-07-31T02:56:20;0.63;;;0.40;;
13704;SDS011;6924;52.122;9.952;2023-07-31T02:58:47;0.60;;;0.60;;
13704;SDS011;6924;52.122;9.952;2023-07-31T03:01:13;0.37;;;0.37;;
13704;SDS011;6924;52.122;9.952;2023-07-31T03:03:41;0.53;;;0.40;;
13704;SDS011;6924;52.122;9.952;2023-07-31T03:06:07;0.77;;;0.50;;
13704;SDS011;6924;52.122;9.952;2023-07-31T03:08:34;1.27;;;0.50;;
13704;SDS011;6924;52.122;9.952;2023-07-31T03:11:01;1.53;;;0.70;;
13704;SDS011;6924;52.122;9.952;2023-07-31T03:13:28;0.70;;;0.60;;
13704;SDS011;6924;52.122;9.952;2023-07-31T03:15:54;7.67;;;0.70;;
13704;SDS011;6924;52.122;9.952;2023-07-31T03:18:21;1.00;;;0.80;;
13704;SDS011;6924;52.122;9.952;2023-07-31T03:20:47;0.70;;;0.60;;
13704;SDS011;6924;52.122;9.952;2023-07-31T03:23:14;0.57;;;0.50;;
13704;SDS011;6924;52.122;9.952;2023-07-31T03:25:41;0.40;;;0.40;;
13704;SDS011;6924;52.122;9.952;2023-07-31T03:28:22;1.27;;;0.40;;
13704;SDS011;6924;52.122;9.952;2023-07-31T03:30:49;2.10;;;0.30;;
13704;SDS011;6924;52.122;9.952;2023-07-31T03:33:16;0.40;;;0.37;;
13704;SDS011;6924;52.122;9.952;2023-07-31T03:35:42;0.80;;;0.40;;
13704;SDS011;6924;52.122;9.952;2023-07-31T03:38:08;0.40;;;0.40;;
13704;SDS011;6924;52.122;9.952;2023-07-31T03:40:35;0.90;;;0.70;;
13704;SDS011;6924;52.122;9.952;2023-07-31T03:43:01;2.30;;;0.70;;
13704;SDS011;6924;52.122;9.952;2023-07-31T03:45:29;0.50;;;0.50;;
13704;SDS011;6924;52.122;9.952;2023-07-31T03:47:56;0.40;;;0.40;;
13704;SDS011;6924;52.122;9.952;2023-07-31T03:50:23;2.13;;;0.50;;
13704;SDS011;6924;52.122;9.952;2023-07-31T03:52:50;1.00;;;0.53;;
13704;SDS011;6924;52.122;9.952;2023-07-31T03:55:16;0.50;;;0.50;;
13704;SDS011;6924;52.122;9.952;2023-07-31T03:57:43;0.90;;;0.60;;
13704;SDS011;6924;52.122;9.952;2023-07-31T04:00:10;3.20;;;0.40;;
13704;SDS011;6924;52.122;9.952;2023-07-31T04:02:38;1.97;;;0.60;;
13704;SDS011;6924;52.122;9.952;2023-07-31T04:05:05;0.90;;;0.50;;
13704;SDS011;6924;52.122;9.952;2023-07-31T04:07:31;4.63;;;0.70;;
13704;SDS011;6924;52.122;9.952;2023-07-31T04:09:59;0.70;;;0.40;;
13704;SDS011;6924;52.122;9.952;2023-07-31T04:12:26;0.20;;;0.20;;
13704;SDS011;6924;52.122;9.952;2023-07-31T04:14:52;0.60;;;0.33;;
13704;SDS011;6924;52.122;9.952;2023-07-31T04:17:19;3.07;;;0.90;;
13704;SDS011;6924;52.122;9.952;2023-07-31T04:19:47;2.57;;;0.53;;
13704;SDS011;6924;52.122;9.952;2023-07-31T04:22:13;3.33;;;0.60;;
13704;SDS011;6924;52.122;9.952;2023-07-31T04:24:40;0.50;;;0.40;;
13704;SDS011;6924;52.122;9.952;2023-07-31T04:27:06;3.00;;;0.70;;
13704;SDS011;6924;52.122;9.952;2023-07-31T04:29:33;3.37;;;0.73;;
13704;SDS011;6924;52.122;9.952;2023-07-31T04:32:00;1.27;;;0.63;;
13704;SDS011;6924;52.122;9.952;2023-07-31T04:34:26;3.47;;;0.47;;
13704;SDS011;6924;52.122;9.952;2023-07-31T04:36:54;0.30;;;0.30;;
13704;SDS011;6924;52.122;9.952;2023-07-31T04:39:20;6.33;;;0.80;;
13704;SDS011;6924;52.122;9.952;2023-07-31T04:41:47;1.63;;;0.40;;
13704;SDS011;6924;52.122;9.952;2023-07-31T04:44:13;2.80;;;0.37;;
13704;SDS011;6924;52.122;9.952;2023-07-31T04:46:40;0.70;;;0.40;;
13704;SDS011;6924;52.122;9.952;2023-07-31T04:49:06;0.57;;;0.43;;
13704;SDS011;6924;52.122;9.952;2023-07-31T04:51:33;0.40;;;0.40;;
13704;SDS011;6924;52.122;9.952;2023-07-31T04:54:01;0.63;;;0.50;;
13704;SDS011;6924;52.122;9.952;2023-07-31T04:56:27;0.60;;;0.60;;
13704;SDS011;6924;52.122;9.952;2023-07-31T04:58:54;0.57;;;0.50;;
13704;SDS011;6924;52.122;9.952;2023-07-31T05:01:20;1.50;;;1.17;;
13704;SDS011;6924;52.122;9.952;2023-07-31T05:03:47;1.43;;;1.33;;
13704;SDS011;6924;52.122;9.952;2023-07-31T05:06:13;1.50;;;1.40;;
13704;SDS011;6924;52.122;9.952;2023-07-31T05:08:40;2.40;;;1.20;;
13704;SDS011;6924;52.122;9.952;2023-07-31T05:11:08;1.93;;;1.80;;
13704;SDS011;6924;52.122;9.952;2023-07-31T05:13:35;2.50;;;2.20;;
13704;SDS011;6924;52.122;9.952;2023-07-31T05:16:01;3.27;;;2.63;;
13704;SDS011;6924;52.122;9.952;2023-07-31T05:18:28;4.17;;;3.23;;
13704;SDS011;6924;52.122;9.952;2023-07-31T05:20:54;3.30;;;3.10;;
13704;SDS011;6924;52.122;9.952;2023-07-31T05:23:21;6.03;;;3.63;;
13704;SDS011;6924;52.122;9.952;2023-07-31T05:25:47;4.93;;;2.80;;
13704;SDS011;6924;52.122;9.952;2023-07-31T05:28:15;4.90;;;3.60;;
13704;SDS011;6924;52.122;9.952;2023-07-31T05:30:41;4.90;;;3.50;;
13704;SDS011;6924;52.122;9.952;2023-07-31T05:33:08;3.97;;;3.57;;
13704;SDS011;6924;52.122;9.952;2023-07-31T05:35:34;4.57;;;4.13;;
13704;SDS011;6924;52.122;9.952;2023-07-31T05:38:01;7.87;;;4.23;;
13704;SDS011;6924;52.122;9.952;2023-07-31T05:40:27;4.10;;;3.73;;
13704;SDS011;6924;52.122;9.952;2023-07-31T05:42:54;4.87;;;4.30;;
13704;SDS011;6924;52.122;9.952;2023-07-31T05:45:22;5.60;;;4.40;;
13704;SDS011;6924;52.122;9.952;2023-07-31T05:47:48;4.00;;;3.70;;
13704;SDS011;6924;52.122;9.952;2023-07-31T05:50:15;5.87;;;4.40;;
13704;SDS011;6924;52.122;9.952;2023-07-31T05:52:41;5.90;;;3.97;;
13704;SDS011;6924;52.122;9.952;2023-07-31T05:55:08;4.03;;;3.27;;
13704;SDS011;6924;52.122;9.952;2023-07-31T05:57:34;4.03;;;3.43;;
13704;SDS011;6924;52.122;9.952;2023-07-31T06:00:01;4.57;;;3.53;;
13704;SDS011;6924;52.122;9.952;2023-07-31T06:02:29;3.30;;;3.00;;
13704;SDS011;6924;52.122;9.952;2023-07-31T06:04:58;5.77;;;3.43;;
13704;SDS011;6924;52.122;9.952;2023-07-31T06:07:25;3.17;;;2.57;;
13704;SDS011;6924;52.122;9.952;2023-07-31T06:09:52;2.70;;;2.50;;
13704;SDS011;6924;52.122;9.952;2023-07-31T06:12:19;2.73;;;2.53;;
13704;SDS011;6924;52.122;9.952;2023-07-31T06:14:46;3.93;;;3.20;;
13704;SDS011;6924;52.122;9.952;2023-07-31T06:17:12;3.33;;;3.03;;
13704;SDS011;6924;52.122;9.952;2023-07-31T06:19:40;3.60;;;3.27;;
13704;SDS011;6924;52.122;9.952;2023-07-31T06:22:07;5.23;;;3.60;;
13704;SDS011;6924;52.122;9.952;2023-07-31T06:24:33;5.70;;;3.93;;
13704;SDS011;6924;52.122;9.952;2023-07-31T06:27:00;4.87;;;4.10;;
13704;SDS011;6924;52.122;9.952;2023-07-31T06:29:29;4.57;;;4.17;;
13704;SDS011;6924;52.122;9.952;2023-07-31T06:31:55;5.73;;;4.70;;
13704;SDS011;6924;52.122;9.952;2023-07-31T06:34:22;5.17;;;4.60;;
13704;SDS011;6924;52.122;9.952;2023-07-31T06:36:50;6.70;;;5.30;;
13704;SDS011;6924;52.122;9.952;2023-07-31T06:39:16;8.50;;;5.40;;
13704;SDS011;6924;52.122;9.952;2023-07-31T06:41:43;5.77;;;5.07;;
13704;SDS011;6924;52.122;9.952;2023-07-31T06:44:10;6.90;;;6.30;;
13704;SDS011;6924;52.122;9.952;2023-07-31T06:46:36;7.47;;;5.47;;
13704;SDS011;6924;52.122;9.952;2023-07-31T06:49:03;9.80;;;6.00;;
13704;SDS011;6924;52.122;9.952;2023-07-31T06:51:30;6.33;;;5.73;;
13704;SDS011;6924;52.122;9.952;2023-07-31T06:53:58;7.10;;;5.90;;
13704;SDS011;6924;52.122;9.952;2023-07-31T06:56:25;8.07;;;5.40;;
13704;SDS011;6924;52.122;9.952;2023-07-31T06:58:52;5.77;;;5.30;;
13704;SDS011;6924;52.122;9.952;2023-07-31T07:01:19;8.93;;;6.60;;
13704;SDS011;6924;52.122;9.952;2023-07-31T07:03:45;8.60;;;5.70;;
13704;SDS011;6924;52.122;9.952;2023-07-31T07:06:11;11.40;;;5.93;;
13704;SDS011;6924;52.122;9.952;2023-07-31T07:08:38;8.73;;;5.60;;
13704;SDS011;6924;52.122;9.952;2023-07-31T07:11:06;6.57;;;4.77;;
13704;SDS011;6924;52.122;9.952;2023-07-31T07:13:32;7.33;;;5.23;;
13704;SDS011;6924;52.122;9.952;2023-07-31T07:15:59;6.40;;;5.00;;
13704;SDS011;6924;52.122;9.952;2023-07-31T07:18:25;6.63;;;4.63;;
13704;SDS011;6924;52.122;9.952;2023-07-31T07:20:52;9.77;;;4.93;;
13704;SDS011;6924;52.122;9.952;2023-07-31T07:23:22;7.83;;;4.83;;
13704;SDS011;6924;52.122;9.952;2023-07-31T07:25:48;5.37;;;4.23;;
13704;SDS011;6924;52.122;9.952;2023-07-31T07:28:17;5.70;;;4.63;;
13704;SDS011;6924;52.122;9.952;2023-07-31T07:30:44;7.73;;;5.10;;
13704;SDS011;6924;52.122;9.952;2023-07-31T07:33:10;5.33;;;4.33;;
13704;SDS011;6924;52.122;9.952;2023-07-31T07:35:37;6.63;;;4.33;;
13704;SDS011;6924;52.122;9.952;2023-07-31T07:38:04;8.37;;;5.13;;
13704;SDS011;6924;52.122;9.952;2023-07-31T07:40:30;5.00;;;4.40;;
13704;SDS011;6924;52.122;9.952;2023-07-31T07:42:57;6.93;;;4.93;;
13704;SDS011;6924;52.122;9.952;2023-07-31T07:45:26;7.00;;;3.97;;
13704;SDS011;6924;52.122;9.952;2023-07-31T07:47:53;6.03;;;4.53;;
13704;SDS011;6924;52.122;9.952;2023-07-31T07:50:19;5.80;;;4.23;;
13704;SDS011;6924;52.122;9.952;2023-07-31T07:52:46;6.13;;;4.47;;
13704;SDS011;6924;52.122;9.952;2023-07-31T07:55:12;5.50;;;3.97;;
13704;SDS011;6924;52.122;9.952;2023-07-31T07:57:39;7.77;;;4.40;;
13704;SDS011;6924;52.122;9.952;2023-07-31T08:00:05;6.03;;;4.70;;
13704;SDS011;6924;52.122;9.952;2023-07-31T08:02:36;8.07;;;4.10;;
13704;SDS011;6924;52.122;9.952;2023-07-31T08:05:03;7.60;;;4.47;;
13704;SDS011;6924;52.122;9.952;2023-07-31T08:07:30;5.37;;;4.50;;
13704;SDS011;6924;52.122;9.952;2023-07-31T08:09:56;7.67;;;4.57;;
13704;SDS011;6924;52.122;9.952;2023-07-31T08:12:23;7.23;;;4.93;;
13704;SDS011;6924;52.122;9.952;2023-07-31T08:14:49;5.17;;;4.67;;
13704;SDS011;6924;52.122;9.952;2023-07-31T08:17:16;5.97;;;4.97;;
13704;SDS011;6924;52.122;9.952;2023-07-31T08:19:44;6.43;;;4.73;;
13704;SDS011;6924;52.122;9.952;2023-07-31T08:22:11;8.10;;;4.53;;
13704;SDS011;6924;52.122;9.952;2023-07-31T08:24:37;9.13;;;4.83;;
13704;SDS011;6924;52.122;9.952;2023-07-31T08:27:05;9.67;;;4.97;;
13704;SDS011;6924;52.122;9.952;2023-07-31T08:29:32;9.83;;;5.13;;
13704;SDS011;6924;52.122;9.952;2023-07-31T08:31:59;9.53;;;4.53;;
13704;SDS011;6924;52.122;9.952;2023-07-31T08:34:25;7.90;;;4.33;;
13704;SDS011;6924;52.122;9.952;2023-07-31T08:36:53;6.87;;;4.20;;
13704;SDS011;6924;52.122;9.952;2023-07-31T08:39:19;5.10;;;4.60;;
13704;SDS011;6924;52.122;9.952;2023-07-31T08:41:46;4.40;;;4.00;;
13704;SDS011;6924;52.122;9.952;2023-07-31T08:44:13;5.40;;;4.03;;
13704;SDS011;6924;52.122;9.952;2023-07-31T08:46:40;5.87;;;3.83;;
13704;SDS011;6924;52.122;9.952;2023-07-31T08:49:07;5.00;;;3.80;;
13704;SDS011;6924;52.122;9.952;2023-07-31T08:51:33;3.67;;;3.00;;
13704;SDS011;6924;52.122;9.952;2023-07-31T08:54:01;3.53;;;2.77;;
13704;SDS011;6924;52.122;9.952;2023-07-31T08:56:29;4.57;;;2.93;;
13704;SDS011;6924;52.122;9.952;2023-07-31T08:58:57;3.00;;;2.63;;
13704;SDS011;6924;52.122;9.952;2023-07-31T09:01:25;3.40;;;2.70;;
13704;SDS011;6924;52.122;9.952;2023-07-31T09:03:53;2.90;;;2.47;;
13704;SDS011;6924;52.122;9.952;2023-07-31T09:06:21;4.33;;;2.97;;
13704;SDS011;6924;52.122;9.952;2023-07-31T09:08:51;3.67;;;2.40;;
13704;SDS011;6924;52.122;9.952;2023-07-31T09:11:19;4.23;;;2.97;;
13704;SDS011;6924;52.122;9.952;2023-07-31T09:13:49;5.33;;;3.20;;
13704;SDS011;6924;52.122;9.952;2023-07-31T09:16:16;3.40;;;2.97;;
13704;SDS011;6924;52.122;9.952;2023-07-31T09:18:52;3.43;;;2.43;;
13704;SDS011;6924;52.122;9.952;2023-07-31T09:21:20;3.80;;;2.60;;
13704;SDS011;6924;52.122;9.952;2023-07-31T09:23:46;4.90;;;3.20;;
13704;SDS011;6924;52.122;9.952;2023-07-31T09:26:28;2.87;;;2.30;;
13704;SDS011;6924;52.122;9.952;2023-07-31T09:28:56;4.03;;;2.50;;
13704;SDS011;6924;52.122;9.952;2023-07-31T09:31:31;3.77;;;2.47;;
13704;SDS011;6924;52.122;9.952;2023-07-31T09:33:58;3.30;;;2.60;;
13704;SDS011;6924;52.122;9.952;2023-07-31T09:36:25;3.00;;;2.57;;
13704;SDS011;6924;52.122;9.952;2023-07-31T09:38:55;3.30;;;2.67;;
13704;SDS011;6924;52.122;9.952;2023-07-31T09:41:23;2.97;;;2.73;;
13704;SDS011;6924;52.122;9.952;2023-07-31T09:43:52;2.63;;;2.47;;
13704;SDS011;6924;52.122;9.952;2023-07-31T09:46:20;2.67;;;2.47;;
13704;SDS011;6924;52.122;9.952;2023-07-31T09:48:47;2.57;;;2.37;;
13704;SDS011;6924;52.122;9.952;2023-07-31T09:51:14;6.03;;;2.50;;
13704;SDS011;6924;52.122;9.952;2023-07-31T09:53:40;2.33;;;2.10;;
13704;SDS011;6924;52.122;9.952;2023-07-31T09:56:07;3.53;;;2.47;;
13704;SDS011;6924;52.122;9.952;2023-07-31T09:58:35;2.87;;;2.57;;
13704;SDS011;6924;52.122;9.952;2023-07-31T10:01:02;3.23;;;2.60;;
13704;SDS011;6924;52.122;9.952;2023-07-31T10:03:29;4.10;;;2.67;;
13704;SDS011;6924;52.122;9.952;2023-07-31T10:05:57;2.37;;;2.17;;
13704;SDS011;6924;52.122;9.952;2023-07-31T10:08:27;2.10;;;2.00;;
13704;SDS011;6924;52.122;9.952;2023-07-31T10:10:55;3.67;;;2.57;;
13704;SDS011;6924;52.122;9.952;2023-07-31T10:13:25;2.77;;;2.20;;
13704;SDS011;6924;52.122;9.952;2023-07-31T10:15:55;2.40;;;2.20;;
13704;SDS011;6924;52.122;9.952;2023-07-31T10:18:25;3.93;;;2.77;;
13704;SDS011;6924;52.122;9.952;2023-07-31T10:20:53;2.83;;;2.50;;
13704;SDS011;6924;52.122;9.952;2023-07-31T10:23:21;2.73;;;2.33;;
13704;SDS011;6924;52.122;9.952;2023-07-31T10:25:48;2.60;;;2.40;;
13704;SDS011;6924;52.122;9.952;2023-07-31T10:28:18;2.90;;;2.60;;
13704;SDS011;6924;52.122;9.952;2023-07-31T10:30:46;2.27;;;2.07;;
13704;SDS011;6924;52.122;9.952;2023-07-31T10:33:15;3.53;;;2.83;;
13704;SDS011;6924;52.122;9.952;2023-07-31T10:35:42;2.57;;;2.20;;
13704;SDS011;6924;52.122;9.952;2023-07-31T10:38:09;4.47;;;1.93;;
13704;SDS011;6924;52.122;9.952;2023-07-31T10:40:37;5.80;;;2.07;;
13704;SDS011;6924;52.122;9.952;2023-07-31T10:43:04;2.80;;;1.97;;
13704;SDS011;6924;52.122;9.952;2023-07-31T10:45:34;2.60;;;2.33;;
13704;SDS011;6924;52.122;9.952;2023-07-31T10:48:02;3.40;;;2.17;;
13704;SDS011;6924;52.122;9.952;2023-07-31T10:50:31;2.97;;;2.77;;
13704;SDS011;6924;52.122;9.952;2023-07-31T10:52:59;1.90;;;1.80;;
13704;SDS011;6924;52.122;9.952;2023-07-31T10:55:28;2.33;;;2.10;;
13704;SDS011;6924;52.122;9.952;2023-07-31T10:57:57;3.53;;;2.23;;
13704;SDS011;6924;52.122;9.952;2023-07-31T11:00:30;2.17;;;1.97;;
13704;SDS011;6924;52.122;9.952;2023-07-31T11:03:01;4.10;;;2.33;;
13704;SDS011;6924;52.122;9.952;2023-07-31T11:05:43;2.73;;;2.00;;
13704;SDS011;6924;52.122;9.952;2023-07-31T11:08:15;2.23;;;2.03;;
13704;SDS011;6924;52.122;9.952;2023-07-31T11:10:43;4.17;;;2.07;;
13704;SDS011;6924;52.122;9.952;2023-07-31T11:13:10;2.80;;;2.00;;
13704;SDS011;6924;52.122;9.952;2023-07-31T11:15:37;3.83;;;2.23;;
13704;SDS011;6924;52.122;9.952;2023-07-31T11:18:04;2.70;;;1.70;;
13704;SDS011;6924;52.122;9.952;2023-07-31T11:20:33;1.87;;;1.40;;
13704;SDS011;6924;52.122;9.952;2023-07-31T11:23:02;1.83;;;1.63;;
13704;SDS011;6924;52.122;9.952;2023-07-31T11:25:30;3.20;;;1.40;;
13704;SDS011;6924;52.122;9.952;2023-07-31T11:27:57;1.57;;;1.47;;
13704;SDS011;6924;52.122;9.952;2023-07-31T11:30:28;1.80;;;1.70;;
13704;SDS011;6924;52.122;9.952;2023-07-31T11:32:55;1.57;;;1.47;;
13704;SDS011;6924;52.122;9.952;2023-07-31T11:35:21;2.80;;;1.40;;
13704;SDS011;6924;52.122;9.952;2023-07-31T11:37:48;2.93;;;1.50;;
13704;SDS011;6924;52.122;9.952;2023-07-31T11:40:16;1.73;;;1.60;;
13704;SDS011;6924;52.122;9.952;2023-07-31T11:42:42;1.70;;;1.60;;
13704;SDS011;6924;52.122;9.952;2023-07-31T11:45:09;1.37;;;1.27;;
13704;SDS011;6924;52.122;9.952;2023-07-31T11:47:36;2.83;;;1.40;;
13704;SDS011;6924;52.122;9.952;2023-07-31T11:50:04;1.73;;;1.47;;
13704;SDS011;6924;52.122;9.952;2023-07-31T11:52:34;2.00;;;1.20;;
13704;SDS011;6924;52.122;9.952;2023-07-31T11:55:04;1.57;;;1.27;;
13704;SDS011;6924;52.122;9.952;2023-07-31T11:57:33;1.33;;;1.13;;
13704;SDS011;6924;52.122;9.952;2023-07-31T12:00:00;1.30;;;1.20;;
13704;SDS011;6924;52.122;9.952;2023-07-31T12:02:28;1.90;;;1.43;;
13704;SDS011;6924;52.122;9.952;2023-07-31T12:04:54;4.70;;;4.30;;
13704;SDS011;6924;52.122;9.952;2023-07-31T12:07:21;1.47;;;1.37;;
13704;SDS011;6924;52.122;9.952;2023-07-31T12:09:53;1.87;;;1.60;;
13704;SDS011;6924;52.122;9.952;2023-07-31T12:12:20;1.13;;;1.03;;
13704;SDS011;6924;52.122;9.952;2023-07-31T12:14:48;2.60;;;1.37;;
13704;SDS011;6924;52.122;9.952;2023-07-31T12:17:16;1.30;;;1.10;;
13704;SDS011;6924;52.122;9.952;2023-07-31T12:19:45;1.30;;;1.20;;
13704;SDS011;6924;52.122;9.952;2023-07-31T12:22:11;1.70;;;1.60;;
13704;SDS011;6924;52.122;9.952;2023-07-31T12:24:39;1.73;;;1.07;;
13704;SDS011;6924;52.122;9.952;2023-07-31T12:27:08;1.60;;;1.50;;
13704;SDS011;6924;52.122;9.952;2023-07-31T12:29:35;1.40;;;1.30;;
13704;SDS011;6924;52.122;9.952;2023-07-31T12:32:04;1.63;;;1.20;;
13704;SDS011;6924;52.122;9.952;2023-07-31T12:34:31;1.07;;;0.90;;
13704;SDS011;6924;52.122;9.952;2023-07-31T12:36:57;1.37;;;1.23;;
13704;SDS011;6924;52.122;9.952;2023-07-31T12:39:24;1.17;;;1.07;;
13704;SDS011;6924;52.122;9.952;2023-07-31T12:41:51;1.93;;;1.00;;
13704;SDS011;6924;52.122;9.952;2023-07-31T12:44:18;1.47;;;1.07;;
13704;SDS011;6924;52.122;9.952;2023-07-31T12:46:44;2.60;;;0.90;;
13704;SDS011;6924;52.122;9.952;2023-07-31T12:49:12;0.63;;;0.63;;
13704;SDS011;6924;52.122;9.952;2023-07-31T12:51:38;0.50;;;0.50;;
13704;SDS011;6924;52.122;9.952;2023-07-31T12:54:05;0.90;;;0.60;;
13704;SDS011;6924;52.122;9.952;2023-07-31T12:56:32;1.43;;;0.70;;
13704;SDS011;6924;52.122;9.952;2023-07-31T12:58:58;0.70;;;0.70;;
13704;SDS011;6924;52.122;9.952;2023-07-31T13:01:25;0.50;;;0.50;;
13704;SDS011;6924;52.122;9.952;2023-07-31T13:03:52;1.20;;;0.63;;
13704;SDS011;6924;52.122;9.952;2023-07-31T13:06:19;0.60;;;0.60;;
13704;SDS011;6924;52.122;9.952;2023-07-31T13:08:46;0.50;;;0.50;;
13704;SDS011;6924;52.122;9.952;2023-07-31T13:11:13;1.50;;;0.40;;
13704;SDS011;6924;52.122;9.952;2023-07-31T13:13:39;1.03;;;0.43;;
13704;SDS011;6924;52.122;9.952;2023-07-31T13:16:06;0.40;;;0.37;;
13704;SDS011;6924;52.122;9.952;2023-07-31T13:18:32;1.77;;;0.67;;
13704;SDS011;6924;52.122;9.952;2023-07-31T13:20:59;0.60;;;0.50;;
13704;SDS011;6924;52.122;9.952;2023-07-31T13:23:26;0.50;;;0.37;;
13704;SDS011;6924;52.122;9.952;2023-07-31T13:25:53;0.37;;;0.37;;
13704;SDS011;6924;52.122;9.952;2023-07-31T13:28:19;0.20;;;0.20;;
13704;SDS011;6924;52.122;9.952;2023-07-31T13:30:46;1.47;;;0.30;;
13704;SDS011;6924;52.122;9.952;2023-07-31T13:33:12;0.37;;;0.30;;
13704;SDS011;6924;52.122;9.952;2023-07-31T13:35:39;0.43;;;0.20;;
13704;SDS011;6924;52.122;9.952;2023-07-31T13:38:05;0.13;;;0.13;;
13704;SDS011;6924;52.122;9.952;2023-07-31T13:40:33;0.30;;;0.30;;
13704;SDS011;6924;52.122;9.952;2023-07-31T13:43:00;0.30;;;0.30;;
13704;SDS011;6924;52.122;9.952;2023-07-31T13:45:26;0.30;;;0.30;;
13704;SDS011;6924;52.122;9.952;2023-07-31T13:47:53;0.23;;;0.23;;
13704;SDS011;6924;52.122;9.952;2023-07-31T13:50:19;0.30;;;0.30;;
13704;SDS011;6924;52.122;9.952;2023-07-31T13:52:47;1.03;;;0.33;;
13704;SDS011;6924;52.122;9.952;2023-07-31T13:55:14;0.17;;;0.13;;
13704;SDS011;6924;52.122;9.952;2023-07-31T13:57:42;0.30;;;0.30;;
13704;SDS011;6924;52.122;9.952;2023-07-31T14:00:09;0.30;;;0.27;;
13704;SDS011;6924;52.122;9.952;2023-07-31T14:02:36;0.60;;;0.30;;
13704;SDS011;6924;52.122;9.952;2023-07-31T14:05:02;0.70;;;0.37;;
13704;SDS011;6924;52.122;9.952;2023-07-31T14:07:31;0.40;;;0.40;;
13704;SDS011;6924;52.122;9.952;2023-07-31T14:09:58;0.90;;;0.30;;
13704;SDS011;6924;52.122;9.952;2023-07-31T14:12:24;1.23;;;0.43;;
13704;SDS011;6924;52.122;9.952;2023-07-31T14:14:52;0.40;;;0.40;;
13704;SDS011;6924;52.122;9.952;2023-07-31T14:17:19;0.40;;;0.40;;
13704;SDS011;6924;52.122;9.952;2023-07-31T14:19:45;0.40;;;0.40;;
13704;SDS011;6924;52.122;9.952;2023-07-31T14:22:11;6.90;;;0.97;;
13704;SDS011;6924;52.122;9.952;2023-07-31T14:24:38;0.40;;;0.40;;
13704;SDS011;6924;52.122;9.952;2023-07-31T14:27:04;0.30;;;0.30;;
13704;SDS011;6924;52.122;9.952;2023-07-31T14:29:31;0.40;;;0.40;;
13704;SDS011;6924;52.122;9.952;2023-07-31T14:31:59;0.40;;;0.30;;
13704;SDS011;6924;52.122;9.952;2023-07-31T14:34:26;0.30;;;0.30;;
13704;SDS011;6924;52.122;9.952;2023-07-31T14:36:52;0.40;;;0.40;;
13704;SDS011;6924;52.122;9.952;2023-07-31T14:39:18;1.90;;;0.50;;
13704;SDS011;6924;52.122;9.952;2023-07-31T14:41:45;1.23;;;0.43;;
13704;SDS011;6924;52.122;9.952;2023-07-31T14:44:12;1.00;;;0.40;;
13704;SDS011;6924;52.122;9.952;2023-07-31T14:46:39;0.30;;;0.30;;
13704;SDS011;6924;52.122;9.952;2023-07-31T14:49:07;0.60;;;0.60;;
13704;SDS011;6924;52.122;9.952;2023-07-31T14:51:33;1.03;;;0.53;;
13704;SDS011;6924;52.122;9.952;2023-07-31T14:54:00;0.57;;;0.50;;
13704;SDS011;6924;52.122;9.952;2023-07-31T14:56:26;0.60;;;0.60;;
13704;SDS011;6924;52.122;9.952;2023-07-31T14:58:53;0.60;;;0.60;;
13704;SDS011;6924;52.122;9.952;2023-07-31T15:01:19;1.40;;;0.70;;